Kine — C6WT4 — position and weather

sailwx.info

Track history (hours):
 
Tides and Currents Weather Stations Pressure Air Temp Water Temp Dewpoint Dewpoint Depression Visibility Wind Speed Wind Dir Waves Ship Positions

Kine

Last reported at 2015-Mar-26 06:33 UTC. Time now 2015-Mar-28 00:35 UTC.
Position N 66°17' E 012°19'.

Length 89 m; draft 4.9 m.

Type: Cargo ship. MMSI: 311117000.

Date/timePositionNaut miles runAvg speedWind from/ knotsBaromVisibWave heightAir tempDewpointWater temp
2015-Mar-26 06:33N 66°17' E 012°19'  
2015-Mar-23 22:26N 66°12' E 012°45'8 8.7
2015-Mar-23 21:32N 66°15' E 012°27'14 9.2
2015-Mar-23 20:04N 66°22' E 011°58'5 9.5
2015-Mar-23 19:33N 66°26' E 011°52'10 9.8
2015-Mar-23 18:33N 66°36' E 011°58'58 9.6
2015-Mar-23 12:34N 67°22' E 013°27'11 9.3
2015-Mar-23 11:25N 67°30' E 013°44'8 9.1
2015-Mar-23 10:33N 67°36' E 013°57'9 9.3
2015-Mar-23 09:34N 67°43' E 014°11'9 9.4
2015-Mar-23 08:34N 67°51' E 014°27'9 9.2
2015-Mar-23 07:33N 67°57' E 014°45'18 0.8
2015-Mar-22 09:33N 68°12' E 015°12'8 7.7
2015-Mar-22 08:33N 68°13' E 015°33'13 6.0
2015-Mar-22 06:18N 68°04' E 015°06'7 9.6
2015-Mar-22 05:34N 67°60' E 014°51'11 9.9
2015-Mar-22 04:26N 67°52' E 014°29'8 9.3
2015-Mar-22 03:33N 67°46' E 014°16'10 9.4
2015-Mar-22 02:32N 67°38' E 013°60'  
2015-Mar-17 21:25N 59°12' E 005°03'8 9.5
2015-Mar-17 20:33N 59°07' E 005°16'8 8.4
2015-Mar-17 19:33N 59°06' E 005°32'8 8.4
2015-Mar-17 18:33N 59°01' E 005°46'4 4.0
2015-Mar-17 17:33N 58°57' E 005°45'0 0.0
2015-Mar-17 16:30N 58°57' E 005°45'0 0.0
2015-Mar-17 15:33N 58°57' E 005°45'0 0.0
2015-Mar-17 14:33N 58°57' E 005°45'0 0.0
2015-Mar-17 13:33N 58°57' E 005°45'0 0.0
2015-Mar-17 12:33N 58°57' E 005°45'0 0.0
2015-Mar-17 11:30N 58°57' E 005°45'0 0.0
2015-Mar-17 10:33N 58°57' E 005°45'5 5.3
2015-Mar-17 09:33N 59°01' E 005°40'6 6.1
2015-Mar-17 08:33N 58°56' E 005°33'8 8.5
2015-Mar-17 07:33N 58°48' E 005°27'7 7.0
2015-Mar-17 06:33N 58°41' E 005°27'16 7.8
2015-Mar-17 04:31N 58°28' E 005°43'7 7.4
2015-Mar-17 03:33N 58°22' E 005°53'8 7.7
2015-Mar-17 02:33N 58°17' E 006°04'8 8.2
2015-Mar-17 01:32N 58°12' E 006°15'10 9.9
2015-Mar-17 00:33N 58°05' E 006°29'117 9.7
2015-Mar-16 12:30N 57°49' E 010°07'1010.6
2015-Mar-16 11:32N 57°48' E 010°26'1010.6
2015-Mar-16 10:33N 57°46' E 010°45'6 6.2
2015-Mar-16 09:32N 57°42' E 010°36'0 0.1
2015-Mar-16 08:21N 57°42' E 010°36'  
Track history (hours):
 
Tides and Currents Weather Stations Pressure Air Temp Water Temp Dewpoint Dewpoint Depression Visibility Wind Speed Wind Dir Waves Ship Positions

Kine

Last reported at 2015-Mar-26 06:33 UTC. Time now 2015-Mar-28 00:35 UTC.
Position N 66°17' E 012°19'.

Length 89 m; draft 4.9 m.

Type: Cargo ship. MMSI: 311117000.

Date/timePositionNaut miles runAvg speedWind from/ knotsBaromVisibWave heightAir tempDewpointWater temp
2015-Mar-26 06:33N 66°17' E 012°19'  
2015-Mar-23 22:26N 66°12' E 012°45'8 8.7
2015-Mar-23 21:32N 66°15' E 012°27'14 9.2
2015-Mar-23 20:04N 66°22' E 011°58'5 9.5
2015-Mar-23 19:33N 66°26' E 011°52'10 9.8
2015-Mar-23 18:33N 66°36' E 011°58'58 9.6
2015-Mar-23 12:34N 67°22' E 013°27'11 9.3
2015-Mar-23 11:25N 67°30' E 013°44'8 9.1
2015-Mar-23 10:33N 67°36' E 013°57'9 9.3
2015-Mar-23 09:34N 67°43' E 014°11'9 9.4
2015-Mar-23 08:34N 67°51' E 014°27'9 9.2
2015-Mar-23 07:33N 67°57' E 014°45'18 0.8
2015-Mar-22 09:33N 68°12' E 015°12'8 7.7
2015-Mar-22 08:33N 68°13' E 015°33'13 6.0
2015-Mar-22 06:18N 68°04' E 015°06'7 9.6
2015-Mar-22 05:34N 67°60' E 014°51'11 9.9
2015-Mar-22 04:26N 67°52' E 014°29'8 9.3
2015-Mar-22 03:33N 67°46' E 014°16'10 9.4
2015-Mar-22 02:32N 67°38' E 013°60'  
2015-Mar-17 21:25N 59°12' E 005°03'8 9.5
2015-Mar-17 20:33N 59°07' E 005°16'8 8.4
2015-Mar-17 19:33N 59°06' E 005°32'8 8.4
2015-Mar-17 18:33N 59°01' E 005°46'4 4.0
2015-Mar-17 17:33N 58°57' E 005°45'0 0.0
2015-Mar-17 16:30N 58°57' E 005°45'0 0.0
2015-Mar-17 15:33N 58°57' E 005°45'0 0.0
2015-Mar-17 14:33N 58°57' E 005°45'0 0.0
2015-Mar-17 13:33N 58°57' E 005°45'0 0.0
2015-Mar-17 12:33N 58°57' E 005°45'0 0.0
2015-Mar-17 11:30N 58°57' E 005°45'0 0.0
2015-Mar-17 10:33N 58°57' E 005°45'5 5.3
2015-Mar-17 09:33N 59°01' E 005°40'6 6.1
2015-Mar-17 08:33N 58°56' E 005°33'8 8.5
2015-Mar-17 07:33N 58°48' E 005°27'7 7.0
2015-Mar-17 06:33N 58°41' E 005°27'16 7.8
2015-Mar-17 04:31N 58°28' E 005°43'7 7.4
2015-Mar-17 03:33N 58°22' E 005°53'8 7.7
2015-Mar-17 02:33N 58°17' E 006°04'8 8.2
2015-Mar-17 01:32N 58°12' E 006°15'10 9.9
2015-Mar-17 00:33N 58°05' E 006°29'117 9.7
2015-Mar-16 12:30N 57°49' E 010°07'1010.6
2015-Mar-16 11:32N 57°48' E 010°26'1010.6
2015-Mar-16 10:33N 57°46' E 010°45'6 6.2
2015-Mar-16 09:32N 57°42' E 010°36'0 0.1
2015-Mar-16 08:21N 57°42' E 010°36'  

Dump ship's entire track history